COOK1: Arkansas River Nr Coolidge, KS

Data processed at Fri Feb 23 2018 21:29


All information presented herein is the property of the government of the United States of America and may be revised or deleted at any time without prior notice.
Dissemination of this information without the expressed written consent of the Public Affairs Office, Tulsa District U.S. Army Corps of Engineers is strictly prohibited.
These data are gathered electronically and, as presented, have not undergone any form of quality control. These data are not guaranteed to be valid or correct.
Go to home page.
Go to station list.

Upstream stations:

Downstream station:
Previous Day
Next Day
Current Day
    
SHEF ID:       COOK1     ARKANSAS R NR COOLIDGE, KS
STATION TYPE:  

               PRECIP     STAGE  STAGE(2)  RIV-FLOW  WTR-TEMP   CONDUCT  BAT-LOAD
                   in        ft        ft       cfs         F   umho/cm      volt
              Ccp-Rev   Ccp-Rev   Ccp-Rev   Ccp-Rev   Ccp-Rev   Ccp-Rev   Ccp-Rev
(US/Central)
02/23 00:00      0.00      3.22      3.19       145     38.95      6520     12.89
02/23 01:00      0.00      3.22      3.16       145     38.46      6539     12.83
02/23 02:00      0.00      3.21      3.19       144     38.17      6557     12.83
02/23 03:00      0.00      3.21      3.17       144     38.05      6545     12.77
02/23 04:00      0.00      3.21      3.17       144     37.99      6548     12.77
02/23 05:00      0.00      3.19      3.18       141     37.90      6529     12.77
02/23 06:00      0.00      3.21      3.17       144     37.78      6509     12.77
02/23 07:00      0.00      3.20      3.15       142     37.60      6471     12.71
02/23 08:00      0.00      3.21      3.14       144     37.45      6505     12.71
02/23 09:00      0.00      3.23      3.19       146     37.42      6494     12.71
02/23 10:00      0.00      3.21      3.17       144     37.53      6466     12.71
02/23 11:00      0.00      3.22      3.19       145     37.72      6440     12.83
02/23 12:00      0.00      3.22      3.16       145     38.05      6435     12.89
02/23 13:00      0.00      3.20      3.16       142     38.53      6455     13.00
02/23 14:00      0.00      3.21      3.17       144     39.06      6548     13.18
02/23 15:00      0.00      3.20      3.16       142     39.38      6574     13.24
02/23 16:00      0.00      3.20      3.18       142     39.60      6575     13.18
02/23 17:00      0.00      3.20      3.15       142     39.58      6588     13.00
02/23 18:00      0.00      3.22      3.17       145     39.38      6586     12.83
02/23 19:00      0.00      3.21      3.19       144     39.16      6599     12.71
02/23 20:00      0.00      3.20      3.21       142     38.88      6611     12.71
02/23 21:00      ----      ----      ----      ----      ----      ----      ----
02/23 22:00      ----      ----      ----      ----      ----      ----      ----
02/23 23:00      ----      ----      ----      ----      ----      ----      ----